createdAt,value
2018-07-04T00:00:29.222Z,100004.88
2018-07-04T00:03:08.692Z,100006.15
2018-07-04T00:05:48.311Z,100008.19
2018-07-04T00:08:27.909Z,99997.04
2018-07-04T00:11:07.539Z,100001.56
2018-07-04T00:13:46.970Z,99996.16
2018-07-04T00:16:26.489Z,99996.98
2018-07-04T00:19:06.037Z,99998.45
2018-07-04T00:21:45.650Z,99998.74
2018-07-04T00:24:25.205Z,100001.23
2018-07-04T00:27:04.850Z,99997.64
2018-07-04T00:29:44.481Z,99997.50
2018-07-04T00:32:24.058Z,99992.69
2018-07-04T00:35:03.634Z,99998.94
2018-07-04T00:37:43.532Z,99997.38
2018-07-04T00:40:23.251Z,99991.38
2018-07-04T00:43:03.218Z,99989.02
2018-07-04T00:45:42.826Z,99990.77
2018-07-04T00:48:22.614Z,99981.64
2018-07-04T00:51:02.454Z,99979.50
2018-07-04T00:53:42.905Z,99973.66
2018-07-04T00:56:22.550Z,99972.62
2018-07-04T00:59:02.605Z,99977.22
2018-07-04T01:01:42.824Z,99969.30
2018-07-04T01:04:23.233Z,99968.51
2018-07-04T01:18:25.514Z,99967.13
2018-07-04T01:21:11.651Z,99967.50
2018-07-04T01:23:51.221Z,99963.70
2018-07-04T01:26:31.006Z,99969.89
2018-07-04T01:29:10.766Z,99967.64
2018-07-04T01:31:50.778Z,99967.02
2018-07-04T01:34:30.322Z,99964.53
2018-07-04T01:37:10.816Z,99965.04
2018-07-04T01:39:50.887Z,99966.70
2018-07-04T01:42:30.956Z,99963.52
2018-07-04T01:45:10.641Z,99964.28
2018-07-04T01:47:51.044Z,99959.45
2018-07-04T01:50:31.298Z,99959.28
2018-07-04T01:53:10.767Z,99959.21
2018-07-04T01:55:51.075Z,99960.75
2018-07-04T01:58:30.849Z,99961.95
2018-07-04T02:01:10.343Z,99965.09
2018-07-04T02:03:50.601Z,99959.25
2018-07-04T02:06:30.274Z,99962.68
2018-07-04T02:09:09.829Z,99970.13
2018-07-04T02:11:49.691Z,99970.82
2018-07-04T02:14:29.225Z,99971.59
2018-07-04T02:17:09.006Z,99969.16
2018-07-04T02:19:48.738Z,99963.52
2018-07-04T02:22:29.217Z,99955.77
2018-07-04T02:25:08.745Z,99958.45
2018-07-04T02:27:48.360Z,99955.27
2018-07-04T02:30:28.006Z,99950.66
2018-07-04T02:33:08.278Z,99949.16
2018-07-04T02:35:52.387Z,99948.72
2018-07-04T02:38:32.219Z,99953.70
2018-07-04T02:41:12.051Z,99956.72
2018-07-04T02:43:52.385Z,99956.50
2018-07-04T02:46:37.161Z,99945.86
2018-07-04T02:49:16.797Z,99955.05
2018-07-04T02:51:56.374Z,99952.81
2018-07-04T02:54:37.260Z,99943.61
2018-07-04T02:57:17.717Z,99944.03
2018-07-04T02:59:58.464Z,99937.31
2018-07-04T03:02:38.074Z,99944.68
2018-07-04T03:05:17.547Z,99942.11
2018-07-04T03:07:57.595Z,99935.25
2018-07-04T03:10:37.518Z,99933.33
2018-07-04T03:13:17.412Z,99929.64
2018-07-04T03:15:58.182Z,99933.56
2018-07-04T03:18:37.838Z,99932.58
2018-07-04T03:21:17.804Z,99935.28
2018-07-04T03:23:57.562Z,99937.83
2018-07-04T03:26:37.556Z,99935.30
2018-07-04T03:29:17.861Z,99947.97
2018-07-04T03:31:57.661Z,99951.02
2018-07-04T03:34:37.350Z,99951.88
2018-07-04T03:37:17.261Z,99953.80
2018-07-04T03:39:56.827Z,99954.77
2018-07-04T03:42:36.578Z,99957.72
2018-07-04T03:45:17.243Z,99955.05
2018-07-04T03:47:57.323Z,99953.80
2018-07-04T03:50:37.234Z,99956.15
2018-07-04T03:53:17.467Z,99953.31
2018-07-04T03:55:57.258Z,99955.50
2018-07-04T03:58:37.869Z,99949.37
2018-07-04T04:01:17.870Z,99954.27
2018-07-04T04:03:58.524Z,99949.56
2018-07-04T04:06:38.753Z,99952.67
2018-07-04T04:09:18.498Z,99954.28
2018-07-04T04:11:58.828Z,99953.17
2018-07-04T04:14:39.613Z,99951.80
2018-07-04T04:17:19.685Z,99946.50
2018-07-04T04:19:59.468Z,99955.05
2018-07-04T04:22:39.290Z,99947.91
2018-07-04T04:25:18.953Z,99935.84
2018-07-04T04:27:58.929Z,99948.23
2018-07-04T04:30:38.703Z,99945.55
2018-07-04T04:33:18.402Z,99944.99
2018-07-04T04:35:59.308Z,99948.23
2018-07-04T04:38:39.230Z,99949.23
2018-07-04T04:41:19.261Z,99952.77
2018-07-04T04:43:59.516Z,99951.64
2018-07-04T04:46:40.098Z,99946.48
2018-07-04T04:49:20.686Z,99946.66
2018-07-04T04:52:00.253Z,99949.28
2018-07-04T04:54:40.335Z,99951.53
2018-07-04T04:57:20.116Z,99956.97
2018-07-04T04:59:59.760Z,99946.53
2018-07-04T05:02:40.535Z,99950.80
2018-07-04T05:05:20.161Z,99948.70
2018-07-04T05:07:59.862Z,99952.11
2018-07-04T05:10:39.545Z,99954.82
2018-07-04T05:13:20.772Z,99944.89
2018-07-04T05:16:00.344Z,99940.76
2018-07-04T05:18:44.621Z,99949.21
2018-07-04T05:21:24.353Z,99945.89
2018-07-04T05:24:04.022Z,99947.02
2018-07-04T05:26:44.069Z,99946.45
2018-07-04T05:29:24.559Z,99943.30
2018-07-04T05:32:04.350Z,99944.83
2018-07-04T05:34:44.201Z,99937.77
2018-07-04T05:37:23.839Z,99936.94
2018-07-04T05:40:03.406Z,99934.22
2018-07-04T05:42:43.041Z,99939.79
2018-07-04T05:45:23.155Z,99935.17
2018-07-04T05:48:03.983Z,99928.09
2018-07-04T05:50:44.359Z,99931.08
2018-07-04T05:53:24.003Z,99928.44
2018-07-04T05:56:04.430Z,99931.11
2018-07-04T05:58:44.893Z,99931.10
2018-07-04T06:01:25.650Z,99930.57
2018-07-04T06:04:05.274Z,99929.25
2018-07-04T06:06:45.719Z,99924.09
2018-07-04T06:09:26.222Z,99932.72
2018-07-04T06:12:06.478Z,99929.09
2018-07-04T06:14:46.437Z,99941.91
2018-07-04T06:17:26.147Z,99940.74
2018-07-04T06:20:05.952Z,99941.97
2018-07-04T06:22:45.536Z,99944.20
2018-07-04T06:25:25.661Z,99946.08
2018-07-04T06:28:06.010Z,99949.02
2018-07-04T06:30:45.901Z,99939.02
2018-07-04T06:33:26.331Z,99928.03
2018-07-04T06:36:06.588Z,99926.39
2018-07-04T06:38:34.680Z,99929.68
2018-07-04T06:41:01.945Z,99936.16
2018-07-04T06:43:29.236Z,99933.08
2018-07-04T06:45:56.819Z,99933.34
2018-07-04T06:48:24.674Z,99931.53
2018-07-04T06:50:51.930Z,99935.47
2018-07-04T06:53:19.289Z,99929.57
2018-07-04T06:55:46.882Z,99935.91
2018-07-04T06:58:14.221Z,99937.23
2018-07-04T07:00:41.484Z,99934.64
2018-07-04T07:03:21.410Z,99934.66
2018-07-04T07:06:01.178Z,99933.58
2018-07-04T07:08:40.968Z,99940.81
2018-07-04T07:11:20.898Z,99936.64
2018-07-04T07:14:00.500Z,99935.72
2018-07-04T07:16:40.315Z,99948.69
2018-07-04T07:19:20.798Z,99946.30
2018-07-04T07:22:00.211Z,99945.09
2018-07-04T07:24:39.877Z,99945.50
2018-07-04T07:27:20.352Z,99937.86
2018-07-04T07:30:00.288Z,99935.58
2018-07-04T07:32:40.483Z,99938.26
2018-07-04T07:35:20.281Z,99934.91
2018-07-04T07:38:01.869Z,99933.47
2018-07-04T07:40:42.209Z,99930.27
2018-07-04T07:43:21.736Z,99925.39
2018-07-04T07:46:01.225Z,99920.23
2018-07-04T07:48:40.925Z,99924.30
2018-07-04T07:51:21.603Z,99926.38
2018-07-04T07:54:01.865Z,99921.22
2018-07-04T07:56:41.602Z,99925.23
2018-07-04T07:59:21.031Z,99929.38
2018-07-04T08:02:01.053Z,99932.87
2018-07-04T08:04:40.950Z,99935.94
2018-07-04T08:07:21.377Z,99932.52
2018-07-04T08:10:01.157Z,99932.09
2018-07-04T08:12:41.650Z,99938.02
2018-07-04T08:15:22.846Z,99937.45
2018-07-04T08:18:04.375Z,99939.36
2018-07-04T08:20:44.770Z,99941.98
2018-07-04T08:23:29.081Z,99946.72
2018-07-04T08:26:09.695Z,99942.24
2018-07-04T08:28:49.727Z,99945.14
2018-07-04T08:31:29.978Z,99948.92
2018-07-04T08:34:09.680Z,99951.31
2018-07-04T08:36:50.129Z,99949.06
2018-07-04T08:39:30.419Z,99952.63
2018-07-04T08:42:10.465Z,99956.75
2018-07-04T08:44:50.261Z,99956.25
2018-07-04T08:47:29.911Z,99958.30
2018-07-04T08:50:10.332Z,99944.03
2018-07-04T08:52:50.282Z,99962.79
2018-07-04T08:55:30.106Z,99963.23
2018-07-04T08:58:09.942Z,99954.73
2018-07-04T09:00:50.772Z,99962.88
2018-07-04T09:03:31.243Z,99971.83
2018-07-04T09:06:11.526Z,99967.97
2018-07-04T09:08:51.923Z,99963.80
2018-07-04T09:11:32.382Z,99968.20
2018-07-04T09:14:12.421Z,99969.34
2018-07-04T09:16:52.405Z,99969.79
2018-07-04T09:19:32.034Z,99970.30
2018-07-04T09:22:11.922Z,99975.25
2018-07-04T09:24:51.940Z,99972.87
2018-07-04T09:27:32.427Z,99977.21
2018-07-04T09:30:12.997Z,99977.48
2018-07-04T09:32:53.468Z,99970.42
2018-07-04T09:35:33.596Z,99972.73
2018-07-04T09:38:13.122Z,99970.95
2018-07-04T09:40:52.705Z,99978.92
2018-07-04T09:43:32.817Z,99977.61
2018-07-04T09:46:12.297Z,99980.36
2018-07-04T09:48:52.189Z,99970.01
2018-07-04T09:51:31.689Z,99974.25
2018-07-04T09:54:11.197Z,99983.84
2018-07-04T09:56:51.285Z,99980.44
2018-07-04T09:59:31.212Z,99989.81
2018-07-04T10:02:11.524Z,99985.79
2018-07-04T10:04:51.478Z,99995.61
2018-07-04T10:07:31.185Z,99994.28
2018-07-04T10:10:11.966Z,99994.33
2018-07-04T10:12:51.536Z,99987.19
2018-07-04T10:15:32.270Z,99987.74
2018-07-04T10:18:12.246Z,99981.66
2018-07-04T10:20:52.217Z,99984.16
2018-07-04T10:23:32.281Z,99978.58
2018-07-04T10:26:12.831Z,99978.94
2018-07-04T10:28:53.738Z,99970.67
2018-07-04T10:31:34.110Z,99966.02
2018-07-04T10:34:15.566Z,99960.83
2018-07-04T10:36:54.918Z,99952.47
2018-07-04T10:39:37.724Z,99952.88
2018-07-04T10:42:17.909Z,99953.86
2018-07-04T10:44:57.477Z,99945.47
2018-07-04T10:47:37.085Z,99934.73
2018-07-04T10:50:17.017Z,99938.64
2018-07-04T10:52:57.750Z,99933.70
2018-07-04T10:55:37.571Z,99928.39
2018-07-04T10:58:17.078Z,99927.97
2018-07-04T11:00:56.713Z,99922.52
2018-07-04T11:03:36.518Z,99917.26
2018-07-04T11:06:16.267Z,99915.98
2018-07-04T11:08:56.335Z,99918.91
2018-07-04T11:11:35.935Z,99923.73
2018-07-04T11:14:15.681Z,99922.14
2018-07-04T11:16:55.889Z,99923.34
2018-07-04T11:19:35.508Z,99920.89
2018-07-04T11:22:15.249Z,99930.20
2018-07-04T11:24:54.921Z,99934.13
2018-07-04T11:27:35.445Z,99951.55
2018-07-04T11:30:15.150Z,99953.44
2018-07-04T11:32:55.405Z,99952.81
2018-07-04T11:35:34.973Z,99953.08
2018-07-04T11:38:15.710Z,99957.91
2018-07-04T11:40:55.426Z,99971.22
2018-07-04T11:43:35.342Z,99981.41
2018-07-04T11:46:04.280Z,99989.17
2018-07-04T11:48:32.179Z,99989.65
2018-07-04T11:50:59.917Z,99985.20
2018-07-04T11:53:27.951Z,99973.81
2018-07-04T11:55:55.294Z,99970.08
2018-07-04T11:58:22.764Z,99973.80
2018-07-04T12:00:50.210Z,99982.19
2018-07-04T12:03:21.566Z,99986.67
2018-07-04T12:06:01.233Z,99987.63
2018-07-04T12:08:28.937Z,99993.70
2018-07-04T12:10:58.117Z,99995.07
2018-07-04T12:13:28.670Z,100000.28
2018-07-04T12:15:56.604Z,100000.48
2018-07-04T12:18:25.698Z,100003.98
2018-07-04T12:20:54.519Z,100009.09
2018-07-04T12:23:22.638Z,100008.62
2018-07-04T12:25:50.382Z,100019.25
2018-07-04T12:28:18.573Z,100007.81
2018-07-04T12:30:47.441Z,100007.08
2018-07-04T12:33:17.227Z,100000.37
2018-07-04T12:35:44.755Z,100000.96
2018-07-04T12:38:12.106Z,99999.30
2018-07-04T12:40:40.560Z,100002.59
2018-07-04T12:43:08.597Z,100000.48
2018-07-04T12:45:39.584Z,100007.37
2018-07-04T12:48:06.902Z,100007.27
2018-07-04T12:50:35.095Z,100003.96
2018-07-04T12:53:02.778Z,100002.16
2018-07-04T12:55:43.935Z,100003.31
2018-07-04T12:58:24.808Z,99997.91
2018-07-04T13:01:04.798Z,99995.75
2018-07-04T13:03:44.491Z,99996.23
2018-07-04T13:06:24.557Z,99998.74
2018-07-04T13:09:05.882Z,99989.51
2018-07-04T13:11:45.787Z,99995.16
2018-07-04T13:14:25.426Z,99983.92
2018-07-04T13:17:05.699Z,99986.20
2018-07-04T13:19:45.740Z,99979.39
2018-07-04T13:22:26.237Z,99983.05
2018-07-04T13:25:06.341Z,99985.70
2018-07-04T13:27:46.339Z,99999.92
2018-07-04T13:30:26.453Z,99997.80
2018-07-04T13:33:07.369Z,100007.16
2018-07-04T13:35:47.261Z,99999.11
2018-07-04T13:38:27.224Z,99988.27
2018-07-04T13:41:06.726Z,99987.38
2018-07-04T13:43:47.017Z,99979.95
2018-07-04T13:46:27.929Z,99977.64
2018-07-04T13:49:08.957Z,99980.78
2018-07-04T13:51:49.732Z,99977.36
2018-07-04T13:54:29.556Z,99985.27
2018-07-04T13:57:09.234Z,99984.75
2018-07-04T13:59:48.821Z,99988.46
2018-07-04T14:02:28.910Z,99985.40
2018-07-04T14:05:08.956Z,99996.89
2018-07-04T14:07:48.480Z,99996.48
2018-07-04T14:10:28.099Z,100004.00
2018-07-04T14:13:08.007Z,99996.41
2018-07-04T14:15:48.389Z,99994.20
2018-07-04T14:18:28.448Z,99985.25
2018-07-04T14:21:08.757Z,99977.78
2018-07-04T14:23:48.445Z,99976.58
2018-07-04T14:26:28.045Z,99971.98
2018-07-04T14:29:08.070Z,99960.69
2018-07-04T14:31:47.865Z,99952.89
2018-07-04T14:34:27.530Z,99958.11
2018-07-04T14:37:06.878Z,99954.45
2018-07-04T14:39:46.514Z,99951.27
2018-07-04T14:42:25.882Z,99956.08
2018-07-04T14:45:05.556Z,99949.63
2018-07-04T14:47:44.994Z,99948.65
2018-07-04T14:50:24.586Z,99949.09
2018-07-04T14:53:04.094Z,99953.46
2018-07-04T14:55:43.702Z,99945.43
2018-07-04T14:58:23.210Z,99942.27
2018-07-04T15:01:02.786Z,99943.97
2018-07-04T15:03:42.398Z,99943.30
2018-07-04T15:06:22.027Z,99931.23
2018-07-04T15:09:01.385Z,99928.58
2018-07-04T15:11:40.906Z,99926.34
2018-07-04T15:14:20.355Z,99927.39
2018-07-04T15:16:59.968Z,99916.17
2018-07-04T15:19:39.461Z,99906.88
2018-07-04T15:22:19.096Z,99908.30
2018-07-04T15:24:58.585Z,99915.38
2018-07-04T15:27:38.030Z,99913.95
2018-07-04T15:30:17.601Z,99922.58
2018-07-04T15:32:57.133Z,99920.92
2018-07-04T15:35:36.637Z,99927.21
2018-07-04T15:38:16.212Z,99934.97
2018-07-04T15:40:55.782Z,99927.00
2018-07-04T15:43:35.257Z,99924.82
2018-07-04T15:46:14.881Z,99915.86
2018-07-04T15:48:54.477Z,99918.38
2018-07-04T15:51:33.926Z,99915.35
2018-07-04T15:54:13.589Z,99917.12
2018-07-04T15:56:53.076Z,99919.34
2018-07-04T15:59:32.640Z,99929.15
2018-07-04T16:02:12.178Z,99925.17
2018-07-04T16:04:52.591Z,99921.32
2018-07-04T16:07:32.157Z,99914.31
2018-07-04T16:10:11.805Z,99914.51
2018-07-04T16:12:51.281Z,99915.13
2018-07-04T16:15:30.719Z,99921.42
2018-07-04T16:18:10.330Z,99920.78
2018-07-04T16:20:49.786Z,99918.20
2018-07-04T16:23:29.263Z,99916.17
2018-07-04T16:26:08.870Z,99910.78
2018-07-04T16:28:48.456Z,99909.28
2018-07-04T16:31:28.082Z,99911.00
2018-07-04T16:34:07.654Z,99913.25
2018-07-04T16:36:47.393Z,99913.69
2018-07-04T16:39:26.733Z,99911.66
2018-07-04T16:42:07.269Z,99906.97
2018-07-04T16:44:46.861Z,99903.38
2018-07-04T16:47:26.302Z,99895.26
2018-07-04T16:50:05.922Z,99882.14
2018-07-04T16:52:45.497Z,99877.03
2018-07-04T16:55:25.000Z,99868.05
2018-07-04T16:58:04.633Z,99867.38
2018-07-04T17:00:44.222Z,99855.47
2018-07-04T17:03:23.846Z,99856.41
2018-07-04T17:06:03.461Z,99857.37
2018-07-04T17:08:43.155Z,99855.34
2018-07-04T17:11:22.770Z,99845.48
2018-07-04T17:14:02.222Z,99842.88
2018-07-04T17:16:41.759Z,99834.08
2018-07-04T17:19:21.231Z,99824.35
2018-07-04T17:22:00.708Z,99815.83
2018-07-04T17:24:40.342Z,99819.14
2018-07-04T17:27:19.801Z,99817.88
2018-07-04T17:29:59.345Z,99824.96
2018-07-04T17:32:38.949Z,99825.84
2018-07-04T17:35:18.673Z,99826.77
2018-07-04T17:37:58.183Z,99823.53
2018-07-04T17:40:37.789Z,99832.30
2018-07-04T17:43:17.293Z,99841.03
2018-07-04T17:45:56.777Z,99841.34
2018-07-04T17:48:36.353Z,99838.63
2018-07-04T17:51:15.998Z,99848.50
2018-07-04T17:53:55.581Z,99859.56
2018-07-04T17:56:35.181Z,99853.48
2018-07-04T17:59:14.817Z,99852.30
2018-07-04T18:01:54.456Z,99849.78
2018-07-04T18:04:33.909Z,99846.25
2018-07-04T18:07:14.348Z,99836.09
2018-07-04T18:09:53.850Z,99845.22
2018-07-04T18:12:33.425Z,99854.22
2018-07-04T18:15:12.889Z,99852.11
2018-07-04T18:17:52.488Z,99847.04
2018-07-04T18:20:31.767Z,99854.89
2018-07-04T18:23:11.359Z,99850.92
2018-07-04T18:25:50.971Z,99850.25
2018-07-04T18:28:30.529Z,99848.66
2018-07-04T18:31:10.021Z,99858.63
2018-07-04T18:33:49.558Z,99860.74
2018-07-04T18:36:28.899Z,99858.06
2018-07-04T18:39:08.465Z,99863.59
2018-07-04T18:41:48.079Z,99864.68
2018-07-04T18:44:27.508Z,99861.09
2018-07-04T18:47:06.902Z,99858.55
2018-07-04T18:49:46.305Z,99854.54
2018-07-04T18:52:25.741Z,99850.71
2018-07-04T18:55:05.214Z,99841.85
2018-07-04T18:57:44.842Z,99831.45
2018-07-04T19:00:24.418Z,99828.97
2018-07-04T19:03:03.900Z,99839.06
2018-07-04T19:05:43.629Z,99842.34
2018-07-04T19:08:23.125Z,99843.08
2018-07-04T19:11:02.602Z,99845.93
2018-07-04T19:13:42.219Z,99851.05
2018-07-04T19:16:21.812Z,99857.27
2018-07-04T19:19:01.390Z,99866.38
2018-07-04T19:21:41.321Z,99868.57
2018-07-04T19:24:20.837Z,99865.31
2018-07-04T19:27:01.362Z,99875.53
2018-07-04T19:29:41.001Z,99862.16
2018-07-04T19:32:21.068Z,99856.73
2018-07-04T19:35:00.633Z,99865.80
2018-07-04T19:37:40.276Z,99867.03
2018-07-04T19:40:20.858Z,99874.12
2018-07-04T19:43:00.470Z,99876.91
2018-07-04T19:45:40.029Z,99868.92
2018-07-04T19:48:19.598Z,99875.38
2018-07-04T19:50:59.161Z,99875.27
2018-07-04T19:56:11.774Z,99871.08
2018-07-04T19:58:51.492Z,99861.83
2018-07-04T20:01:31.035Z,99860.37
2018-07-04T20:04:10.536Z,99854.89
2018-07-04T20:06:50.217Z,99858.42
2018-07-04T20:09:31.189Z,99853.25
2018-07-04T20:12:10.598Z,99839.84
2018-07-04T20:14:50.250Z,99856.28
2018-07-04T20:17:29.866Z,99859.55
2018-07-04T20:20:09.379Z,99854.28
2018-07-04T20:22:49.980Z,99846.52
2018-07-04T20:25:29.756Z,99841.31
2018-07-04T20:28:09.249Z,99840.44
2018-07-04T20:30:52.690Z,99835.77
2018-07-04T20:33:33.514Z,99839.43
2018-07-04T20:36:13.126Z,99838.36
2018-07-04T20:38:52.747Z,99837.86
2018-07-04T20:41:32.201Z,99836.00
2018-07-04T20:44:11.817Z,99845.91
2018-07-04T20:46:51.367Z,99842.25
2018-07-04T20:49:30.807Z,99846.47
2018-07-04T20:52:10.469Z,99848.87
2018-07-04T20:54:49.992Z,99847.84
2018-07-04T20:57:29.657Z,99847.52
2018-07-04T21:00:09.236Z,99841.53
2018-07-04T21:02:48.739Z,99851.97
2018-07-04T21:05:28.348Z,99851.97
2018-07-04T21:08:07.925Z,99855.98
2018-07-04T21:10:47.475Z,99850.66
2018-07-04T21:13:26.985Z,99855.66
2018-07-04T21:16:06.651Z,99862.20
2018-07-04T21:18:46.134Z,99875.53
2018-07-04T21:21:25.615Z,99871.04
2018-07-04T21:24:05.298Z,99879.60
2018-07-04T21:26:44.771Z,99881.77
2018-07-04T21:29:24.750Z,99898.12
2018-07-04T21:32:04.207Z,99898.46
2018-07-04T21:34:43.644Z,99906.62
2018-07-04T21:37:23.272Z,99903.34
2018-07-04T21:40:02.850Z,99910.34
2018-07-04T21:42:42.648Z,99913.17
2018-07-04T21:45:22.233Z,99917.36
2018-07-04T21:48:01.830Z,99917.20
2018-07-04T21:50:41.358Z,99917.87
2018-07-04T21:53:20.983Z,99925.25
2018-07-04T21:56:00.610Z,99918.02
2018-07-04T21:58:40.804Z,99911.92
2018-07-04T22:01:20.260Z,99909.99
2018-07-04T22:03:59.847Z,99915.98
2018-07-04T22:06:39.426Z,99918.89
2018-07-04T22:09:19.014Z,99917.84
2018-07-04T22:11:58.608Z,99899.75
2018-07-04T22:14:38.192Z,99892.88
2018-07-04T22:17:17.601Z,99894.33
2018-07-04T22:19:57.094Z,99901.63
2018-07-04T22:22:36.692Z,99902.84
2018-07-04T22:25:16.137Z,99895.83
2018-07-04T22:27:55.595Z,99889.46
2018-07-04T22:30:35.162Z,99879.84
2018-07-04T22:33:14.776Z,99883.58
2018-07-04T22:35:54.264Z,99880.56
2018-07-04T22:38:33.790Z,99883.05
2018-07-04T22:41:13.381Z,99879.06
2018-07-04T22:43:52.969Z,99875.45
2018-07-04T22:46:32.473Z,99869.69
2018-07-04T22:49:12.056Z,99869.67
2018-07-04T22:51:51.637Z,99884.09
2018-07-04T22:54:31.139Z,99878.58
2018-07-04T22:57:10.721Z,99879.31
2018-07-04T22:59:50.290Z,99866.70
2018-07-04T23:02:29.862Z,99872.33
2018-07-04T23:05:09.449Z,99877.44
2018-07-04T23:07:49.030Z,99862.95
2018-07-04T23:10:28.609Z,99859.97
2018-07-04T23:13:08.187Z,99855.24
2018-07-04T23:15:47.794Z,99850.73
2018-07-04T23:18:27.441Z,99859.70
2018-07-04T23:21:07.009Z,99857.22
2018-07-04T23:23:46.973Z,99854.41
2018-07-04T23:26:26.421Z,99855.94
2018-07-04T23:29:06.046Z,99845.76
2018-07-04T23:31:45.644Z,99851.03
2018-07-04T23:34:25.139Z,99850.24
2018-07-04T23:37:04.774Z,99848.61
2018-07-04T23:39:44.649Z,99852.14
2018-07-04T23:42:24.123Z,99861.00
2018-07-04T23:45:03.696Z,99860.40
2018-07-04T23:47:43.291Z,99859.71
2018-07-04T23:50:22.947Z,99864.27
2018-07-04T23:53:02.496Z,99857.08
2018-07-04T23:55:42.114Z,99867.23
2018-07-04T23:58:21.714Z,99863.84
